Surubim, Brazil
Current Conditions -  °F | °C
As of 6:00 AM on Monday 20 Oct 2014 (Local Time) from SBKG Reporting Station
Haze Haze  
Wind Chill: 68°   Ceiling: 1100
Heat Index: 68°   Visibility: 3mi
Dew Point: 68°   Wind: 10mph
Humidity: 100%   Direction: 110°ESE
Pressure: 30"   Gusts: NA
Location:  7.83°S, 35.75°W
Report Text: SBKG 200900Z 11009KT 5000 BR SCT005 BKN011 20/20 Q1016
Loading
Personal Weather Stations






























Interactive Weather Map
Tropical Storm Tracking
New forecast layout! Learn more

10-Day Weather Forecast

Advertisements
Track Severe Weather on mobile